Time;durP1;ratioP1;P1;durP2;ratioP2;P2;SDS_P1;SDS_P2;PMS_P1;PMS_P2;Temp;Humidity;BMP_temperature;BMP_pressure;BME280_temperature;BME280_humidity;BME280_pressure;Samples;Min_cycle;Max_cycle;Signal;HPM_P1;HPM_P2
2020/12/17 00:01:10;;;;;;;37.60;19.17;;;;;;;4.95;89.18;101502.19;4983312;28;20467;-57
2020/12/17 00:03:37;;;;;;;34.05;18.45;;;;;;;4.97;88.70;101487.38;4999934;28;20108;-58
2020/12/17 00:06:03;;;;;;;32.83;18.55;;;;;;;5.03;89.82;101503.75;5000901;28;20038;-56
2020/12/17 00:08:30;;;;;;;33.45;18.90;;;;;;;5.04;89.16;101496.78;5000610;28;20683;-56
2020/12/17 00:10:57;;;;;;;29.20;18.33;;;;;;;5.01;88.35;101483.81;5004224;28;20049;-56
2020/12/17 00:13:24;;;;;;;32.15;18.83;;;;;;;5.02;87.81;101485.53;5000399;28;20065;-58
2020/12/17 00:15:50;;;;;;;30.77;17.58;;;;;;;5.00;87.43;101482.97;4986766;28;20052;-55
2020/12/17 00:18:18;;;;;;;33.97;18.05;;;;;;;4.88;88.24;101485.81;5005154;28;20061;-57
2020/12/17 00:20:44;;;;;;;31.13;18.58;;;;;;;4.86;88.35;101481.53;5003470;28;21092;-56
2020/12/17 00:23:11;;;;;;;30.15;17.90;;;;;;;4.84;88.83;101473.72;5000150;28;20235;-60
2020/12/17 00:25:37;;;;;;;36.10;19.33;;;;;;;4.75;88.48;101484.38;5000420;28;20054;-59
2020/12/17 00:28:04;;;;;;;37.90;20.15;;;;;;;4.76;88.27;101473.03;5001531;28;20049;-58
2020/12/17 00:30:31;;;;;;;33.90;19.55;;;;;;;4.69;88.92;101477.53;4995787;28;20054;-56
2020/12/17 00:32:58;;;;;;;32.83;19.27;;;;;;;4.77;88.84;101470.41;5005339;28;20720;-60
2020/12/17 00:35:24;;;;;;;32.80;19.02;;;;;;;4.75;88.47;101473.94;4984455;28;20042;-56
2020/12/17 00:37:51;;;;;;;33.42;19.50;;;;;;;4.69;88.08;101468.84;5014409;23;20068;-64
2020/12/17 00:40:20;;;;;;;33.33;18.88;;;;;;;4.69;88.28;101469.72;5002309;28;20053;-63
2020/12/17 00:42:47;;;;;;;30.90;17.52;;;;;;;4.71;88.18;101460.09;5003055;28;20062;-60
2020/12/17 00:45:15;;;;;;;30.15;17.35;;;;;;;4.71;87.55;101470.53;5000685;28;20141;-66
2020/12/17 00:47:42;;;;;;;28.80;17.85;;;;;;;4.71;88.64;101461.84;4992354;28;20069;-62
2020/12/17 00:50:10;;;;;;;34.10;17.52;;;;;;;4.70;88.32;101467.97;4984951;28;20531;-63
2020/12/17 00:52:39;;;;;;;30.80;18.20;;;;;;;4.70;88.04;101475.78;5004022;28;20145;-62
2020/12/17 00:55:06;;;;;;;30.92;18.10;;;;;;;4.68;88.50;101477.53;4999968;28;20061;-61
2020/12/17 00:57:32;;;;;;;29.65;17.33;;;;;;;4.82;88.43;101479.00;4990889;28;20057;-65
2020/12/17 00:59:59;;;;;;;32.25;18.42;;;;;;;4.72;88.11;101474.84;5003579;28;20057;-64
2020/12/17 01:02:26;;;;;;;31.30;18.02;;;;;;;4.77;88.26;101474.75;4971221;28;20048;-63
2020/12/17 01:04:53;;;;;;;26.92;17.20;;;;;;;4.74;88.40;101475.69;5003712;28;20054;-61
2020/12/17 01:07:20;;;;;;;33.95;18.75;;;;;;;4.80;88.10;101477.28;4989703;28;20065;-62
2020/12/17 01:09:47;;;;;;;27.60;17.00;;;;;;;4.72;87.75;101474.84;5004067;28;20061;-60
2020/12/17 01:12:15;;;;;;;30.00;17.58;;;;;;;4.78;87.84;101472.13;5003500;28;20069;-62
2020/12/17 01:14:41;;;;;;;28.00;17.95;;;;;;;4.80;87.80;101454.69;4986067;28;20407;-63
2020/12/17 01:17:08;;;;;;;29.02;17.23;;;;;;;4.80;87.66;101453.81;5001330;28;20052;-64
2020/12/17 01:19:35;;;;;;;31.15;17.17;;;;;;;4.79;87.86;101457.31;5002930;28;20054;-60
2020/12/17 01:22:02;;;;;;;29.25;17.92;;;;;;;4.79;88.09;101460.78;5000675;28;20060;-63
2020/12/17 01:24:29;;;;;;;29.25;17.38;;;;;;;4.81;87.38;101455.53;5003062;28;20053;-63
2020/12/17 01:26:56;;;;;;;28.88;17.05;;;;;;;4.79;87.73;101454.72;5006033;28;20038;-64
2020/12/17 01:29:24;;;;;;;29.08;18.02;;;;;;;4.78;87.80;101448.66;5006823;28;20053;-63
2020/12/17 01:31:54;;;;;;;30.90;17.92;;;;;;;4.75;86.64;101442.63;5004733;28;20116;-59
2020/12/17 01:34:20;;;;;;;29.02;17.50;;;;;;;4.72;87.31;101440.94;4988679;28;20046;-63
2020/12/17 01:36:50;;;;;;;29.17;17.27;;;;;;;4.70;87.69;101447.09;4991104;28;20069;-63
2020/12/17 01:39:17;;;;;;;29.17;16.45;;;;;;;4.69;87.30;101440.16;5008943;28;20050;-64
2020/12/17 01:41:44;;;;;;;29.60;17.10;;;;;;;4.70;87.25;101434.06;4988897;28;20124;-62
2020/12/17 01:44:10;;;;;;;29.52;16.85;;;;;;;4.78;86.92;101442.56;5004819;28;20058;-64
2020/12/17 01:46:37;;;;;;;27.17;16.13;;;;;;;4.75;87.09;101438.28;5006407;28;20042;-63
2020/12/17 01:49:04;;;;;;;30.90;18.58;;;;;;;4.70;87.33;101427.09;5000917;28;20057;-61
2020/12/17 01:51:31;;;;;;;29.02;16.45;;;;;;;4.70;86.55;101427.09;5001167;28;20295;-63
2020/12/17 01:53:58;;;;;;;29.30;16.98;;;;;;;4.68;87.43;101428.84;5007255;28;20053;-64
2020/12/17 01:56:26;;;;;;;30.65;17.88;;;;;;;4.73;87.34;101429.63;5002073;28;20046;-61
2020/12/17 01:59:23;;;;;;;32.63;17.85;;;;;;;4.67;86.81;101419.31;4990140;28;20045;-63
2020/12/17 02:01:51;;;;;;;25.98;15.63;;;;;;;4.70;86.49;101416.66;4997109;28;20061;-63
2020/12/17 02:04:21;;;;;;;29.45;18.05;;;;;;;4.70;86.67;101413.19;5006209;28;20058;-63
2020/12/17 02:06:48;;;;;;;30.25;17.48;;;;;;;4.64;86.41;101413.31;5001706;28;20094;-63
2020/12/17 02:09:15;;;;;;;31.60;17.50;;;;;;;4.55;86.73;101414.38;5006858;28;20093;-64
2020/12/17 02:11:56;;;;;;;29.50;17.08;;;;;;;4.50;86.97;101401.44;5005531;28;20133;-64
2020/12/17 02:14:24;;;;;;;30.27;17.90;;;;;;;4.37;86.95;101394.78;5007162;28;20054;-64
2020/12/17 02:16:51;;;;;;;29.55;17.90;;;;;;;4.32;88.09;101388.78;5006184;28;20068;-64
2020/12/17 02:19:17;;;;;;;28.35;17.92;;;;;;;4.18;88.15;101383.84;5008534;28;20523;-61
2020/12/17 02:21:44;;;;;;;32.03;19.13;;;;;;;4.14;88.95;101381.34;5006265;28;20057;-64
2020/12/17 02:24:11;;;;;;;30.70;19.05;;;;;;;4.06;88.87;101386.72;5000094;28;20148;-64
2020/12/17 02:26:38;;;;;;;31.95;18.42;;;;;;;4.02;88.73;101379.84;5004239;28;20050;-62
2020/12/17 02:29:05;;;;;;;33.08;18.98;;;;;;;3.93;88.84;101375.69;5006637;28;20050;-60
2020/12/17 02:31:35;;;;;;;31.95;18.25;;;;;;;3.89;89.40;101370.56;4998292;28;20153;-65
2020/12/17 02:34:02;;;;;;;31.88;18.75;;;;;;;3.88;89.43;101377.50;5004551;28;20474;-63
2020/12/17 02:36:30;;;;;;;35.00;19.38;;;;;;;3.87;89.53;101373.16;5005981;28;20108;-62
2020/12/17 02:38:58;;;;;;;32.28;17.75;;;;;;;3.87;89.73;101374.91;5006080;28;20133;-62
2020/12/17 02:41:26;;;;;;;30.98;18.23;;;;;;;3.83;90.38;101381.97;4989563;28;20057;-61
2020/12/17 02:43:53;;;;;;;33.40;20.40;;;;;;;3.77;90.31;101397.69;4985891;28;20057;-58
2020/12/17 02:46:20;;;;;;;30.13;18.20;;;;;;;3.74;90.08;101410.78;5006063;28;20050;-62
2020/12/17 02:48:52;;;;;;;35.55;19.75;;;;;;;3.76;90.56;101414.19;5007863;28;20483;-63
2020/12/17 02:51:20;;;;;;;34.75;19.30;;;;;;;3.73;90.37;101416.84;5004810;28;20058;-63
2020/12/17 02:53:47;;;;;;;37.92;19.85;;;;;;;3.55;91.06;101421.50;5006724;28;20058;-62
2020/12/17 02:56:14;;;;;;;31.52;18.95;;;;;;;3.60;91.06;101418.81;4993227;28;20057;-62
2020/12/17 02:58:42;;;;;;;34.25;19.55;;;;;;;3.66;91.02;101428.28;5001155;28;20046;-65
2020/12/17 03:01:08;;;;;;;32.55;18.65;;;;;;;3.70;89.92;101424.75;5004226;28;20141;-61
2020/12/17 03:03:35;;;;;;;32.70;19.83;;;;;;;3.63;89.73;101426.56;5005965;28;20062;-63
2020/12/17 03:06:02;;;;;;;31.63;18.17;;;;;;;3.64;90.36;101430.88;5006435;28;20529;-64
2020/12/17 03:08:29;;;;;;;34.13;19.63;;;;;;;3.47;90.69;101431.19;5003631;28;20136;-63
2020/12/17 03:10:55;;;;;;;35.35;20.98;;;;;;;3.46;90.80;101437.25;4989371;28;20046;-61
2020/12/17 03:13:22;;;;;;;36.72;20.48;;;;;;;3.52;90.47;101436.31;5004000;28;20066;-63
2020/12/17 03:15:49;;;;;;;32.70;19.30;;;;;;;3.57;90.25;101428.44;5002513;28;20237;-62
2020/12/17 03:18:16;;;;;;;37.03;20.33;;;;;;;3.51;90.69;101429.38;5003930;28;20050;-62
2020/12/17 03:20:43;;;;;;;39.15;21.92;;;;;;;3.46;91.19;101428.59;5009170;28;20058;-63
2020/12/17 03:23:10;;;;;;;36.17;21.20;;;;;;;3.50;90.52;101436.31;5006698;28;20045;-64
2020/12/17 03:25:36;;;;;;;36.50;20.73;;;;;;;3.45;90.83;101430.34;4987535;28;20073;-62
2020/12/17 03:28:03;;;;;;;30.15;17.98;;;;;;;3.41;90.61;101415.66;5004818;28;20530;-62
2020/12/17 03:30:31;;;;;;;35.65;20.33;;;;;;;3.41;90.37;101425.22;5004088;28;20506;-63
2020/12/17 03:32:58;;;;;;;39.40;20.83;;;;;;;3.45;90.23;101427.75;5006449;28;20058;-65
2020/12/17 03:35:25;;;;;;;38.70;21.88;;;;;;;3.38;90.86;101425.25;5003587;28;20057;-63
2020/12/17 03:37:52;;;;;;;37.95;20.98;;;;;;;3.31;91.19;101424.50;5002824;28;20149;-63
2020/12/17 03:40:19;;;;;;;35.47;20.05;;;;;;;3.41;90.30;101420.00;5004323;28;20069;-65
2020/12/17 03:42:46;;;;;;;37.65;21.20;;;;;;;3.34;90.80;101434.03;5004130;28;20050;-64
2020/12/17 03:45:13;;;;;;;36.55;21.10;;;;;;;3.30;91.14;101422.81;5003279;28;20169;-62
2020/12/17 03:47:40;;;;;;;40.63;22.52;;;;;;;3.30;91.31;101435.81;5005690;28;20061;-62
2020/12/17 03:50:06;;;;;;;37.05;22.05;;;;;;;3.22;91.29;101435.06;5003340;28;20526;-63
2020/12/17 03:52:33;;;;;;;36.33;21.13;;;;;;;3.23;91.03;101435.03;5004044;28;20140;-62
2020/12/17 03:55:00;;;;;;;33.95;20.50;;;;;;;3.24;90.84;101428.09;5004770;28;20054;-63
2020/12/17 03:57:26;;;;;;;41.83;22.85;;;;;;;3.20;91.11;101426.44;5002082;28;20064;-60
2020/12/17 03:59:53;;;;;;;38.45;20.17;;;;;;;3.24;90.84;101426.38;5003191;28;20209;-65
2020/12/17 04:02:20;;;;;;;39.95;22.02;;;;;;;3.26;90.86;101416.78;5001701;28;20441;-63
2020/12/17 04:04:46;;;;;;;39.35;22.45;;;;;;;3.22;90.76;101420.31;5006673;28;20413;-63
2020/12/17 04:07:15;;;;;;;37.58;21.00;;;;;;;3.21;90.79;101408.19;5002720;28;20662;-64
2020/12/17 04:09:42;;;;;;;36.47;20.58;;;;;;;3.20;91.13;101409.09;4986314;28;20065;-64
2020/12/17 04:12:09;;;;;;;38.60;21.58;;;;;;;3.17;91.68;101414.31;5004901;28;20053;-64
2020/12/17 04:14:37;;;;;;;35.63;20.75;;;;;;;3.16;91.07;101419.56;5006225;28;20069;-62
2020/12/17 04:17:21;;;;;;;38.42;21.02;;;;;;;3.14;91.18;101411.75;5003183;28;20041;-63
2020/12/17 04:19:48;;;;;;;36.05;20.73;;;;;;;3.16;91.29;101416.97;4999673;28;21519;-64
2020/12/17 04:22:18;;;;;;;41.65;22.27;;;;;;;3.15;91.61;101421.31;5004888;28;20056;-63
2020/12/17 04:24:46;;;;;;;40.35;22.40;;;;;;;3.15;91.35;101425.63;5006581;28;20057;-63
2020/12/17 04:27:28;;;;;;;37.25;20.58;;;;;;;3.04;91.66;101428.41;5004211;28;20073;-63
2020/12/17 04:29:56;;;;;;;39.42;21.17;;;;;;;3.09;91.40;101426.59;5007761;28;20054;-64
2020/12/17 04:32:23;;;;;;;36.85;21.08;;;;;;;3.07;91.27;101427.50;5001078;28;20100;-63
2020/12/17 04:34:50;;;;;;;39.97;22.17;;;;;;;3.26;91.18;101431.53;4985026;28;20141;-60
2020/12/17 04:37:17;;;;;;;37.90;21.23;;;;;;;3.24;90.83;101423.75;4985133;28;20038;-61
2020/12/17 04:39:43;;;;;;;37.55;20.67;;;;;;;3.28;90.61;101415.00;5004976;28;20054;-65
2020/12/17 04:42:12;;;;;;;37.53;21.58;;;;;;;3.26;89.96;101410.72;5002283;28;20890;-62
2020/12/17 04:44:38;;;;;;;41.30;22.40;;;;;;;3.17;90.83;101414.31;5003273;28;20049;-63
2020/12/17 04:47:06;;;;;;;36.50;21.13;;;;;;;3.21;91.09;101407.34;4992078;28;20034;-65
2020/12/17 04:49:45;;;;;;;41.50;21.58;;;;;;;3.18;90.52;101410.84;4984538;28;20137;-63
2020/12/17 04:52:13;;;;;;;37.10;21.52;;;;;;;3.10;90.45;101414.44;4996346;28;20116;-62
2020/12/17 04:54:41;;;;;;;42.35;22.50;;;;;;;3.05;90.45;101404.09;5002529;28;20527;-63
2020/12/17 04:57:09;;;;;;;40.38;22.35;;;;;;;3.03;90.85;101408.47;5002439;28;20069;-64
2020/12/17 04:59:47;;;;;;;40.17;22.15;;;;;;;2.99;90.78;101406.81;5001621;28;20061;-64
2020/12/17 05:02:15;;;;;;;39.95;22.40;;;;;;;2.96;91.11;101399.03;4985743;28;20050;-64
2020/12/17 05:04:43;;;;;;;36.47;21.00;;;;;;;2.94;90.97;101404.28;5007086;28;20522;-63
2020/12/17 05:07:14;;;;;;;41.00;21.77;;;;;;;2.91;90.76;101404.31;5003881;28;20418;-63
2020/12/17 05:09:43;;;;;;;38.80;22.15;;;;;;;2.92;91.17;101408.63;5001929;28;20096;-63
2020/12/17 05:12:10;;;;;;;40.13;20.77;;;;;;;2.88;90.81;101416.50;4986971;28;20061;-63
2020/12/17 05:14:37;;;;;;;38.03;21.90;;;;;;;2.89;91.41;101405.22;5001884;28;20558;-61
2020/12/17 05:17:05;;;;;;;40.92;22.63;;;;;;;2.89;91.20;101408.69;4999840;28;20043;-63
2020/12/17 05:19:32;;;;;;;40.45;21.73;;;;;;;2.85;90.47;101409.63;4998063;28;20078;-62
2020/12/17 05:22:00;;;;;;;39.20;22.10;;;;;;;2.83;91.46;101395.75;4999000;28;20054;-62
2020/12/17 05:24:27;;;;;;;38.63;21.90;;;;;;;2.78;91.11;101397.56;5003337;28;20180;-62
2020/12/17 05:26:57;;;;;;;43.22;23.17;;;;;;;2.74;90.98;101396.75;4997792;28;20063;-62
2020/12/17 05:29:24;;;;;;;45.08;23.05;;;;;;;2.72;91.54;101390.72;4983709;28;20523;-62
2020/12/17 05:31:51;;;;;;;45.97;25.90;;;;;;;2.72;91.33;101395.94;5000243;28;20050;-61
2020/12/17 05:34:18;;;;;;;49.33;25.45;;;;;;;2.70;91.54;101399.41;4998674;28;20050;-62
2020/12/17 05:36:45;;;;;;;46.85;24.48;;;;;;;2.66;91.54;101402.97;5003138;28;20054;-64
2020/12/17 05:39:19;;;;;;;46.20;25.77;;;;;;;2.66;91.62;101410.75;5004295;28;20417;-64
2020/12/17 05:41:51;;;;;;;43.92;23.88;;;;;;;2.66;91.10;101406.41;5009222;28;20062;-63
2020/12/17 05:44:28;;;;;;;48.80;24.00;;;;;;;2.61;91.39;101408.22;5003837;28;20073;-61
2020/12/17 05:46:55;;;;;;;43.95;22.23;;;;;;;2.62;91.60;101409.94;4999966;28;20043;-64
2020/12/17 05:49:27;;;;;;;40.58;22.35;;;;;;;2.62;91.50;101401.28;5004762;28;20089;-62
2020/12/17 05:52:19;;;;;;;46.22;22.15;;;;;;;2.66;91.39;101409.03;5004905;28;20042;-62
2020/12/17 05:54:54;;;;;;;42.75;22.10;;;;;;;2.61;91.40;101405.63;5002357;28;20057;-64
2020/12/17 05:57:22;;;;;;;38.92;20.73;;;;;;;2.67;91.01;101409.88;5003402;28;20045;-63
2020/12/17 05:59:55;;;;;;;41.70;22.23;;;;;;;2.64;91.25;101402.09;5007483;28;20538;-61
2020/12/17 06:02:29;;;;;;;40.85;22.77;;;;;;;2.62;91.53;101403.88;5000457;28;20050;-63
2020/12/17 06:05:07;;;;;;;41.55;22.90;;;;;;;2.59;91.17;101403.91;5004471;28;20508;-62
2020/12/17 06:07:48;;;;;;;42.88;23.60;;;;;;;2.56;91.27;101401.34;4999575;28;20570;-60
2020/12/17 06:10:28;;;;;;;43.30;21.77;;;;;;;2.53;91.25;101402.25;5004858;28;20049;-60
2020/12/17 06:13:02;;;;;;;51.72;23.52;;;;;;;2.52;91.17;101398.81;5001929;28;20140;-63
2020/12/17 06:15:30;;;;;;;40.00;20.63;;;;;;;2.48;91.54;101406.66;5003975;28;20057;-65
2020/12/17 06:17:58;;;;;;;44.50;22.25;;;;;;;2.42;91.26;101398.94;5004180;28;20058;-62
2020/12/17 06:20:27;;;;;;;45.38;22.88;;;;;;;2.45;91.60;101398.91;5004356;28;20053;-61
2020/12/17 06:22:55;;;;;;;45.17;23.10;;;;;;;2.42;91.20;101404.13;5000459;28;20058;-62
2020/12/17 06:25:26;;;;;;;46.88;23.35;;;;;;;2.44;91.04;101402.38;5004061;28;20057;-66
2020/12/17 06:27:53;;;;;;;46.25;23.02;;;;;;;2.39;91.29;101394.66;5003018;28;20383;-63
2020/12/17 06:30:23;;;;;;;41.35;22.65;;;;;;;2.39;91.33;101397.25;5001472;28;20054;-60
2020/12/17 06:32:54;;;;;;;42.40;21.63;;;;;;;2.38;91.08;101403.31;5004602;28;20045;-65
2020/12/17 06:35:45;;;;;;;43.33;22.98;;;;;;;2.38;91.32;101395.50;4984507;28;20064;-65
2020/12/17 06:38:17;;;;;;;49.58;24.25;;;;;;;2.33;91.73;101393.84;5000192;28;20125;-65
2020/12/17 06:40:44;;;;;;;43.97;22.35;;;;;;;2.32;91.77;101381.75;5003256;28;20053;-63
2020/12/17 06:43:12;;;;;;;42.28;23.58;;;;;;;2.34;91.69;101378.22;4999710;28;20399;-62
2020/12/17 06:45:39;;;;;;;44.40;22.40;;;;;;;2.35;91.69;101392.97;5004488;28;20546;-63
2020/12/17 06:48:31;;;;;;;43.25;22.70;;;;;;;2.36;91.27;101388.63;4997599;28;20136;-64
2020/12/17 06:50:59;;;;;;;46.60;25.05;;;;;;;2.40;91.60;101392.91;5004461;28;20408;-64
2020/12/17 06:53:41;;;;;;;53.85;23.85;;;;;;;2.44;90.95;101382.47;4985636;28;20057;-62
2020/12/17 06:56:17;;;;;;;39.47;21.73;;;;;;;2.39;90.74;101381.66;4997298;28;20058;-63
2020/12/17 06:58:43;;;;;;;;;;;;;;;2.35;91.02;101373.94;5002225;28;20584;-61
2020/12/17 07:01:26;;;;;;;43.30;21.08;;;;;;;2.35;91.29;101369.59;5000888;28;19921;-61
2020/12/17 07:03:53;;;;;;;49.20;24.60;;;;;;;2.37;91.13;101373.00;5003965;28;20157;-61
2020/12/17 07:06:24;;;;;;;44.15;22.52;;;;;;;2.38;91.05;101366.06;5002037;28;20058;-63
2020/12/17 07:08:52;;;;;;;47.42;23.13;;;;;;;2.38;90.95;101377.31;5000886;28;20055;-62
2020/12/17 07:11:48;;;;;;;42.15;22.60;;;;;;;2.38;90.89;101377.31;5003039;28;20054;-59
2020/12/17 07:14:33;;;;;;;46.60;22.60;;;;;;;2.48;90.57;101375.47;4992408;28;20053;-62
2020/12/17 07:17:03;;;;;;;43.33;22.83;;;;;;;2.42;90.41;101373.81;5003624;28;20418;-61
2020/12/17 07:19:41;;;;;;;42.33;22.20;;;;;;;2.43;90.52;101374.66;4967824;28;20070;-58
2020/12/17 07:22:13;;;;;;;45.88;22.95;;;;;;;2.53;90.40;101389.28;5002152;28;20058;-65
2020/12/17 07:24:43;;;;;;;44.70;22.15;;;;;;;2.58;90.28;101389.22;4983155;28;20053;-61
2020/12/17 07:27:15;;;;;;;45.75;21.77;;;;;;;2.63;89.61;101395.19;5001071;28;20042;-62
2020/12/17 07:29:47;;;;;;;41.92;21.42;;;;;;;2.64;89.80;101400.38;5000834;28;20616;-62
2020/12/17 07:32:32;;;;;;;45.45;22.00;;;;;;;2.73;89.30;101399.38;5002130;28;20173;-61
2020/12/17 07:35:07;;;;;;;41.38;21.38;;;;;;;2.81;89.15;101396.69;5000038;28;20129;-62
2020/12/17 07:37:38;;;;;;;40.47;22.95;;;;;;;2.87;88.68;101396.56;4998161;28;20038;-63
2020/12/17 07:40:13;;;;;;;42.42;21.88;;;;;;;3.04;88.38;101395.44;5014873;23;20065;-59
2020/12/17 07:42:40;;;;;;;39.80;21.15;;;;;;;3.20;86.96;101395.22;4990256;28;20067;-56
2020/12/17 07:45:07;;;;;;;38.28;19.42;;;;;;;3.26;87.02;101406.38;5008695;28;20073;-54
2020/12/17 07:47:35;;;;;;;44.40;22.98;;;;;;;3.43;86.63;101398.28;5003336;28;20057;-56
2020/12/17 07:50:02;;;;;;;39.97;20.55;;;;;;;3.53;85.76;101410.25;4993834;28;20046;-58
2020/12/17 07:52:31;;;;;;;37.90;21.60;;;;;;;3.53;85.14;101409.41;4984303;28;20045;-53
2020/12/17 07:54:58;;;;;;;38.42;20.42;;;;;;;3.62;84.65;101398.81;5000417;28;20141;-57
2020/12/17 07:57:26;;;;;;;36.65;21.00;;;;;;;3.64;84.03;101399.63;5000608;28;20723;-60
2020/12/17 07:59:53;;;;;;;43.03;21.30;;;;;;;3.61;84.03;101404.94;4997742;28;20057;-53
2020/12/17 08:02:20;;;;;;;43.70;22.55;;;;;;;3.53;85.00;101399.00;5000702;28;20061;-57
2020/12/17 08:04:53;;;;;;;42.38;21.50;;;;;;;3.48;84.73;101386.06;4985216;28;20153;-55
2020/12/17 08:07:21;;;;;;;52.10;21.25;;;;;;;3.63;85.07;101384.91;4998637;28;20061;-54
2020/12/17 08:10:00;;;;;;;37.15;21.00;;;;;;;4.11;82.25;101386.63;5005631;28;20073;-51
2020/12/17 08:12:27;;;;;;;35.72;19.70;;;;;;;5.32;77.16;101392.59;4981928;28;20058;-58
2020/12/17 08:15:07;;;;;;;34.60;20.00;;;;;;;6.17;73.08;101391.22;5003918;28;20166;-57
2020/12/17 08:17:34;;;;;;;41.83;20.67;;;;;;;6.27;72.69;101377.84;5000626;28;20054;-57
2020/12/17 08:20:01;;;;;;;35.60;19.55;;;;;;;6.75;70.83;101382.50;5001021;28;20882;-54
2020/12/17 08:22:28;;;;;;;41.00;20.77;;;;;;;7.34;67.95;101384.13;5003439;28;20113;-55
2020/12/17 08:25:03;;;;;;;36.90;19.00;;;;;;;6.57;70.24;101393.53;4998076;28;20058;-55
2020/12/17 08:27:30;;;;;;;33.60;19.70;;;;;;;6.01;72.87;101381.22;4987165;28;20124;-53
2020/12/17 08:29:57;;;;;;;36.00;18.25;;;;;;;5.41;75.04;101394.97;5003282;28;20084;-55
2020/12/17 08:32:24;;;;;;;35.75;19.92;;;;;;;5.13;75.78;101383.47;4987141;28;20550;-54
2020/12/17 08:34:57;;;;;;;35.53;18.60;;;;;;;4.62;78.93;101378.59;4998901;28;20129;-56
2020/12/17 08:37:23;;;;;;;36.30;20.08;;;;;;;4.36;79.48;101382.59;4994861;28;20156;-56
2020/12/17 08:40:06;;;;;;;42.90;20.50;;;;;;;4.24;80.26;101395.91;4999215;28;20125;-56
2020/12/17 08:42:34;;;;;;;43.13;21.98;;;;;;;4.12;80.67;101386.59;4984630;28;20058;-54
2020/12/17 08:45:06;;;;;;;38.97;20.58;;;;;;;4.10;80.96;101398.81;4996870;28;20224;-57
2020/12/17 08:47:37;;;;;;;35.75;20.17;;;;;;;4.12;81.62;101389.19;4990310;28;20053;-55
2020/12/17 08:50:08;;;;;;;36.92;20.45;;;;;;;4.03;81.56;101394.59;4987008;28;20046;-58
2020/12/17 08:52:35;;;;;;;42.50;20.55;;;;;;;4.02;81.39;101398.09;5007193;28;20634;-51
2020/12/17 08:55:06;;;;;;;38.10;19.75;;;;;;;4.01;81.62;101396.38;5004761;28;20087;-55
2020/12/17 08:57:33;;;;;;;34.00;19.48;;;;;;;4.03;82.46;101398.03;5005066;28;20123;-58
2020/12/17 09:00:00;;;;;;;38.03;20.30;;;;;;;4.04;81.55;101402.38;4985338;28;20054;-56
2020/12/17 09:02:28;;;;;;;37.55;19.85;;;;;;;4.09;81.25;101401.41;5002163;28;20042;-58
2020/12/17 09:04:59;;;;;;;35.17;19.05;;;;;;;4.14;81.00;101402.19;4996344;28;20054;-54
2020/12/17 09:07:27;;;;;;;34.67;19.95;;;;;;;4.14;81.11;101396.97;5004227;28;20569;-54
2020/12/17 09:10:10;;;;;;;32.85;18.55;;;;;;;4.14;80.92;101399.56;5005583;28;20056;-56
2020/12/17 09:12:43;;;;;;;35.90;19.15;;;;;;;4.19;81.23;101401.22;4989113;28;20136;-57
2020/12/17 09:19:31;;;;;;;31.88;18.15;;;;;;;4.37;81.14;101405.19;4990004;28;20514;-57
2020/12/17 09:22:00;;;;;;;35.42;17.58;;;;;;;4.33;80.50;101408.75;5003601;28;20050;-55
2020/12/17 09:24:30;;;;;;;34.60;18.98;;;;;;;4.43;79.37;101410.28;4983023;28;20046;-55
2020/12/17 09:27:24;;;;;;;36.38;20.20;;;;;;;4.50;80.08;101398.84;4994150;28;20045;-57
2020/12/17 09:30:06;;;;;;;36.35;18.52;;;;;;;4.49;79.55;101394.50;5004386;28;20061;-54
2020/12/17 09:32:35;;;;;;;32.97;18.30;;;;;;;4.58;78.94;101399.50;5006096;28;20122;-53
2020/12/17 09:35:08;;;;;;;31.60;17.13;;;;;;;4.41;79.61;101403.38;5002753;28;20717;-57
2020/12/17 09:37:36;;;;;;;33.50;17.13;;;;;;;4.55;79.08;101398.75;5008706;28;20054;-56
2020/12/17 09:40:06;;;;;;;36.70;19.00;;;;;;;4.61;79.32;101402.97;4988251;28;20058;-54
2020/12/17 09:42:33;;;;;;;37.40;19.58;;;;;;;4.83;78.27;101391.16;5004395;28;20058;-55
2020/12/17 09:45:15;;;;;;;37.08;18.90;;;;;;;4.78;78.74;101408.66;4993453;28;20129;-57
2020/12/17 09:47:45;;;;;;;36.60;19.33;;;;;;;4.94;77.82;101404.78;4992599;28;20132;-57
2020/12/17 09:50:16;;;;;;;37.30;18.80;;;;;;;5.00;79.57;101391.63;5006570;28;20080;-59
2020/12/17 09:52:44;;;;;;;30.58;17.40;;;;;;;5.05;77.19;101383.69;4986736;28;20386;-57
2020/12/17 09:55:12;;;;;;;33.42;17.80;;;;;;;5.12;77.24;101374.78;5003570;28;20052;-51
2020/12/17 09:57:40;;;;;;;33.80;19.30;;;;;;;5.02;77.61;101378.53;5005904;28;20054;-58
2020/12/17 10:00:12;;;;;;;34.38;18.85;;;;;;;5.10;76.93;101386.19;5006425;28;20058;-55
2020/12/17 10:02:40;;;;;;;32.47;18.95;;;;;;;4.94;77.82;101383.91;5003092;28;20058;-55
2020/12/17 10:05:08;;;;;;;34.70;18.60;;;;;;;4.85;78.41;101381.53;4977366;28;20515;-60
2020/12/17 10:07:34;;;;;;;32.30;18.48;;;;;;;4.98;77.42;101379.50;5004320;28;20546;-59
2020/12/17 10:10:03;;;;;;;33.70;18.50;;;;;;;5.15;77.03;101377.34;4986240;28;20049;-59
2020/12/17 10:12:40;;;;;;;32.20;17.23;;;;;;;5.00;77.20;101370.75;5004071;28;20058;-56
2020/12/17 10:15:07;;;;;;;33.72;18.70;;;;;;;5.17;76.92;101367.69;4998580;28;20058;-57
2020/12/17 10:17:34;;;;;;;28.92;17.48;;;;;;;5.37;76.80;101350.72;5002871;28;20418;-59
2020/12/17 10:20:04;;;;;;;33.10;19.13;;;;;;;5.46;76.38;101361.75;5000419;28;20522;-57
2020/12/17 10:22:46;;;;;;;34.88;19.63;;;;;;;5.43;76.13;101350.53;4986647;28;20070;-58
2020/12/17 10:25:14;;;;;;;38.00;18.48;;;;;;;5.51;75.90;101346.81;5001736;28;20050;-61
2020/12/17 10:27:41;;;;;;;34.22;18.65;;;;;;;5.49;76.23;101359.09;5004143;28;20526;-57
2020/12/17 10:30:08;;;;;;;31.63;18.25;;;;;;;5.50;75.63;101350.34;5001832;28;20092;-58
2020/12/17 10:32:37;;;;;;;30.95;17.70;;;;;;;5.56;75.15;101354.53;4984492;28;20057;-61
2020/12/17 10:35:05;;;;;;;34.58;19.45;;;;;;;5.57;75.36;101357.09;4989999;28;20395;-59
2020/12/17 10:37:32;;;;;;;33.53;17.48;;;;;;;5.56;75.75;101347.56;5002360;28;20082;-56
2020/12/17 10:39:59;;;;;;;37.92;18.75;;;;;;;5.62;75.31;101340.44;5002367;28;20065;-56
2020/12/17 10:42:25;;;;;;;38.22;18.50;;;;;;;5.66;75.41;101344.69;4987625;28;20058;-56
2020/12/17 10:44:52;;;;;;;35.80;18.60;;;;;;;5.60;75.70;101343.13;4988452;28;20108;-58
2020/12/17 10:47:20;;;;;;;34.15;17.90;;;;;;;5.59;75.97;101346.63;5002115;28;20129;-56
2020/12/17 10:49:47;;;;;;;36.63;18.52;;;;;;;5.68;75.45;101343.78;5002515;28;20050;-59
2020/12/17 10:52:15;;;;;;;32.42;18.40;;;;;;;5.81;75.30;101345.16;4983361;28;20050;-56
2020/12/17 10:54:41;;;;;;;30.40;18.08;;;;;;;5.88;74.78;101334.53;5003413;28;20062;-54
2020/12/17 10:57:09;;;;;;;32.38;18.17;;;;;;;5.79;75.52;101346.06;5008082;28;20116;-57
2020/12/17 10:59:35;;;;;;;31.55;17.55;;;;;;;5.93;74.62;101346.56;5006291;28;20212;-56
2020/12/17 11:02:02;;;;;;;33.83;16.63;;;;;;;5.99;74.22;101338.59;5015056;28;20064;-61
2020/12/17 11:04:29;;;;;;;34.03;17.25;;;;;;;5.99;74.56;101335.97;5003990;28;20077;-53
2020/12/17 11:06:56;;;;;;;33.63;16.02;;;;;;;5.98;74.37;101336.84;5008481;28;20073;-56
2020/12/17 11:09:28;;;;;;;31.00;16.85;;;;;;;6.00;74.77;101332.44;4980312;28;20046;-57
2020/12/17 11:11:55;;;;;;;35.25;18.98;;;;;;;6.14;75.57;101339.91;4997880;28;20543;-56
2020/12/17 11:14:22;;;;;;;34.58;18.30;;;;;;;6.23;74.06;101330.94;5002366;28;20115;-59
2020/12/17 11:16:49;;;;;;;27.85;16.63;;;;;;;5.99;74.93;101322.91;4986785;28;20056;-52
2020/12/17 11:19:17;;;;;;;33.85;17.23;;;;;;;6.05;74.96;101332.31;5000874;28;20049;-58
2020/12/17 11:21:44;;;;;;;31.30;16.83;;;;;;;6.12;74.90;101319.91;4992799;28;20057;-55
2020/12/17 11:24:11;;;;;;;30.40;16.63;;;;;;;6.16;76.45;101325.00;4994830;28;20061;-59
2020/12/17 11:26:42;;;;;;;31.75;16.50;;;;;;;6.18;74.62;101324.97;5001734;28;20050;-55
2020/12/17 11:29:10;;;;;;;32.00;18.15;;;;;;;6.12;74.68;101332.97;4984159;28;20042;-53
2020/12/17 11:31:37;;;;;;;28.23;17.13;;;;;;;6.24;75.95;101338.72;5002737;28;20065;-53